createdAt,value
2017-12-23T00:00:47.438Z,98678.28
2017-12-23T00:03:14.999Z,98685.81
2017-12-23T00:05:42.635Z,98683.74
2017-12-23T00:08:10.205Z,98685.00
2017-12-23T00:10:38.201Z,98683.74
2017-12-23T00:13:05.777Z,98689.17
2017-12-23T00:15:33.391Z,98691.28
2017-12-23T00:18:00.948Z,98685.41
2017-12-23T00:20:28.840Z,98685.38
2017-12-23T00:22:56.433Z,98679.85
2017-12-23T00:25:24.000Z,98682.42
2017-12-23T00:27:51.555Z,98681.23
2017-12-23T00:30:19.082Z,98683.63
2017-12-23T00:32:46.660Z,98674.80
2017-12-23T00:35:14.203Z,98666.00
2017-12-23T00:37:41.762Z,98657.95
2017-12-23T00:40:09.523Z,98655.80
2017-12-23T00:42:37.142Z,98658.75
2017-12-23T00:45:04.695Z,98663.34
2017-12-23T00:47:32.529Z,98669.16
2017-12-23T00:50:00.063Z,98674.56
2017-12-23T00:52:27.621Z,98680.41
2017-12-23T00:54:55.236Z,98679.50
2017-12-23T00:57:22.835Z,98678.19
2017-12-23T00:59:50.388Z,98684.27
2017-12-23T01:02:17.976Z,98679.68
2017-12-23T01:04:45.547Z,98675.97
2017-12-23T01:07:13.111Z,98671.32
2017-12-23T01:09:41.174Z,98673.45
2017-12-23T01:12:08.749Z,98673.54
2017-12-23T01:14:36.399Z,98675.67
2017-12-23T01:17:03.958Z,98672.72
2017-12-23T01:19:31.506Z,98673.16
2017-12-23T01:21:59.048Z,98670.67
2017-12-23T01:24:26.604Z,98676.95
2017-12-23T01:26:54.215Z,98684.14
2017-12-23T01:29:21.752Z,98677.45
2017-12-23T01:31:49.315Z,98680.88
2017-12-23T01:34:16.858Z,98680.44
2017-12-23T01:36:44.454Z,98672.45
2017-12-23T01:39:11.990Z,98665.79
2017-12-23T01:41:39.556Z,98667.52
2017-12-23T01:44:07.104Z,98664.16
2017-12-23T01:46:34.960Z,98663.22
2017-12-23T01:49:02.500Z,98657.38
2017-12-23T01:51:30.039Z,98656.99
2017-12-23T01:53:57.659Z,98659.01
2017-12-23T01:56:25.196Z,98661.06
2017-12-23T01:58:52.869Z,98659.80
2017-12-23T02:01:20.397Z,98661.00
2017-12-23T02:03:47.955Z,98664.83
2017-12-23T02:06:15.518Z,98665.00
2017-12-23T02:08:43.116Z,98659.65
2017-12-23T02:11:10.662Z,98660.41
2017-12-23T02:13:38.258Z,98663.12
2017-12-23T02:16:05.829Z,98656.48
2017-12-23T02:18:33.809Z,98648.56
2017-12-23T02:21:01.363Z,98642.39
2017-12-23T02:23:28.899Z,98633.82
2017-12-23T02:25:56.485Z,98628.14
2017-12-23T02:28:24.054Z,98629.63
2017-12-23T02:30:51.629Z,98620.14
2017-12-23T02:33:19.177Z,98620.17
2017-12-23T02:35:46.755Z,98613.56
2017-12-23T02:38:14.351Z,98610.75
2017-12-23T02:40:41.924Z,98615.36
2017-12-23T02:43:09.459Z,98611.27
2017-12-23T02:45:37.020Z,98608.92
2017-12-23T02:48:04.582Z,98606.87
2017-12-23T02:50:32.153Z,98599.67
2017-12-23T02:52:59.706Z,98607.39
2017-12-23T02:55:27.539Z,98604.58
2017-12-23T02:57:55.392Z,98613.81
2017-12-23T03:00:22.931Z,98609.74
2017-12-23T03:02:50.527Z,98611.06
2017-12-23T03:05:18.070Z,98616.41
2017-12-23T03:07:45.714Z,98612.78
2017-12-23T03:10:13.248Z,98611.47
2017-12-23T03:12:40.859Z,98611.14
2017-12-23T03:15:08.468Z,98610.27
2017-12-23T03:17:36.077Z,98609.88
2017-12-23T03:20:03.641Z,98614.42
2017-12-23T03:22:31.248Z,98611.88
2017-12-23T03:24:58.804Z,98598.48
2017-12-23T03:27:26.693Z,98598.05
2017-12-23T03:29:54.276Z,98585.91
2017-12-23T03:32:21.882Z,98578.36
2017-12-23T03:34:49.456Z,98574.67
2017-12-23T03:37:17.039Z,98566.33
2017-12-23T03:39:44.692Z,98562.20
2017-12-23T03:42:12.231Z,98562.20
2017-12-23T03:44:39.812Z,98560.99
2017-12-23T03:47:07.384Z,98556.40
2017-12-23T03:49:35.017Z,98561.95
2017-12-23T03:52:02.643Z,98563.23
2017-12-23T03:54:30.671Z,98565.42
2017-12-23T03:56:58.219Z,98569.28
2017-12-23T03:59:25.758Z,98570.59
2017-12-23T04:01:53.340Z,98560.17
2017-12-23T04:04:20.921Z,98559.43
2017-12-23T04:06:48.493Z,98569.95
2017-12-23T04:09:16.051Z,98567.94
2017-12-23T04:11:43.638Z,98562.55
2017-12-23T04:14:11.208Z,98560.03
2017-12-23T04:16:38.823Z,98552.94
2017-12-23T04:19:06.410Z,98558.91
2017-12-23T04:21:34.231Z,98552.64
2017-12-23T04:24:01.777Z,98548.05
2017-12-23T04:26:29.332Z,98545.09
2017-12-23T04:28:56.913Z,98545.61
2017-12-23T04:31:24.461Z,98553.23
2017-12-23T04:33:52.008Z,98557.01
2017-12-23T04:36:19.571Z,98573.56
2017-12-23T04:38:47.132Z,98576.16
2017-12-23T04:41:14.730Z,98578.39
2017-12-23T04:43:42.343Z,98574.63
2017-12-23T04:46:09.921Z,98578.89
2017-12-23T04:48:37.497Z,98578.45
2017-12-23T04:51:05.038Z,98573.03
2017-12-23T04:53:32.621Z,98576.31
2017-12-23T04:56:00.155Z,98579.70
2017-12-23T04:58:27.723Z,98570.95
2017-12-23T05:00:55.256Z,98575.66
2017-12-23T05:03:22.816Z,98572.81
2017-12-23T05:05:50.374Z,98581.31
2017-12-23T05:08:17.899Z,98584.30
2017-12-23T05:10:45.466Z,98569.27
2017-12-23T05:13:13.011Z,98568.89
2017-12-23T05:15:40.580Z,98562.23
2017-12-23T05:18:08.122Z,98548.02
2017-12-23T05:20:35.725Z,98551.05
2017-12-23T05:23:03.331Z,98547.78
2017-12-23T05:25:30.900Z,98551.64
2017-12-23T05:27:58.521Z,98559.84
2017-12-23T05:30:26.098Z,98563.01
2017-12-23T05:32:53.649Z,98564.21
2017-12-23T05:35:21.195Z,98561.96
2017-12-23T05:37:49.056Z,98560.86
2017-12-23T05:40:16.650Z,98557.27
2017-12-23T05:42:44.203Z,98558.22
2017-12-23T05:45:12.024Z,98551.92
2017-12-23T05:47:39.657Z,98565.23
2017-12-23T05:50:07.214Z,98570.48
2017-12-23T05:52:34.842Z,98566.70
2017-12-23T05:55:02.405Z,98573.02
2017-12-23T05:57:29.994Z,98571.45
2017-12-23T05:59:57.550Z,98571.13
2017-12-23T06:02:25.526Z,98569.07
2017-12-23T06:04:53.082Z,98585.08
2017-12-23T06:07:20.611Z,98593.52
2017-12-23T06:09:48.165Z,98595.65
2017-12-23T06:12:15.722Z,98598.17
2017-12-23T06:14:43.313Z,98594.47
2017-12-23T06:17:10.851Z,98589.45
2017-12-23T06:19:38.482Z,98589.45
2017-12-23T06:22:06.135Z,98588.63
2017-12-23T06:24:33.712Z,98574.83
2017-12-23T06:27:01.267Z,98574.84
2017-12-23T06:29:28.827Z,98576.23
2017-12-23T06:31:56.363Z,98572.52
2017-12-23T06:34:23.932Z,98574.66
2017-12-23T06:36:51.500Z,98576.37
2017-12-23T06:39:19.106Z,98565.09
2017-12-23T06:41:46.673Z,98571.77
2017-12-23T06:44:14.213Z,98570.15
2017-12-23T06:46:41.817Z,98567.63
2017-12-23T06:49:09.354Z,98568.13
2017-12-23T06:51:36.955Z,98560.64
2017-12-23T06:54:04.514Z,98555.23
2017-12-23T06:56:32.143Z,98555.30
2017-12-23T06:58:59.736Z,98552.33
2017-12-23T07:01:27.354Z,98562.11
2017-12-23T07:03:54.935Z,98558.34
2017-12-23T07:06:22.543Z,98559.14
2017-12-23T07:08:50.278Z,98563.77
2017-12-23T07:11:18.214Z,98563.83
2017-12-23T07:13:45.810Z,98579.02
2017-12-23T07:16:13.399Z,98570.27
2017-12-23T07:18:40.986Z,98579.14
2017-12-23T07:21:08.587Z,98584.13
2017-12-23T07:23:37.064Z,98587.09
2017-12-23T07:26:04.631Z,98577.08
2017-12-23T07:28:32.268Z,98587.16
2017-12-23T07:30:59.842Z,98579.09
2017-12-23T07:33:27.433Z,98579.22
2017-12-23T07:35:55.096Z,98581.81
2017-12-23T07:38:22.664Z,98584.39
2017-12-23T07:40:50.209Z,98585.65
2017-12-23T07:43:17.854Z,98584.84
2017-12-23T07:45:45.480Z,98585.27
2017-12-23T07:48:13.079Z,98586.62
2017-12-23T07:50:40.687Z,98587.58
2017-12-23T07:53:08.241Z,98587.64
2017-12-23T07:55:35.835Z,98580.50
2017-12-23T07:58:03.424Z,98581.34
2017-12-23T08:00:30.983Z,98588.09
2017-12-23T08:02:58.530Z,98581.86
2017-12-23T08:05:26.098Z,98588.98
2017-12-23T08:07:53.696Z,98581.86
2017-12-23T08:10:21.543Z,98576.88
2017-12-23T08:12:49.129Z,98586.97
2017-12-23T08:15:16.683Z,98586.28
2017-12-23T08:17:44.263Z,98584.71
2017-12-23T08:20:11.883Z,98586.05
2017-12-23T08:22:39.487Z,98585.27
2017-12-23T08:25:07.058Z,98586.12
2017-12-23T08:27:34.632Z,98588.31
2017-12-23T08:30:02.168Z,98587.07
2017-12-23T08:32:29.776Z,98581.26
2017-12-23T08:34:57.332Z,98582.98
2017-12-23T08:37:24.934Z,98596.17
2017-12-23T08:39:52.509Z,98591.20
2017-12-23T08:42:20.085Z,98591.71
2017-12-23T08:44:47.699Z,98592.72
2017-12-23T08:47:15.242Z,98599.66
2017-12-23T08:49:42.810Z,98603.59
2017-12-23T08:52:10.364Z,98610.40
2017-12-23T08:54:37.960Z,98610.36
2017-12-23T08:57:05.532Z,98591.02
2017-12-23T08:59:33.155Z,98601.49
2017-12-23T09:02:00.716Z,98604.09
2017-12-23T09:04:28.286Z,98609.06
2017-12-23T09:06:55.851Z,98615.83
2017-12-23T09:09:23.441Z,98613.73
2017-12-23T09:11:50.996Z,98619.73
2017-12-23T09:14:18.602Z,98621.45
2017-12-23T09:16:46.167Z,98627.38
2017-12-23T09:19:13.728Z,98626.56
2017-12-23T09:21:41.337Z,98629.89
2017-12-23T09:24:08.904Z,98634.50
2017-12-23T09:26:36.529Z,98634.64
2017-12-23T09:29:04.094Z,98633.20
2017-12-23T09:31:31.697Z,98632.95
2017-12-23T09:33:59.378Z,98635.73
2017-12-23T09:36:26.994Z,98634.63
2017-12-23T09:38:54.547Z,98636.59
2017-12-23T09:41:22.114Z,98632.23
2017-12-23T09:43:49.661Z,98633.77
2017-12-23T09:46:17.225Z,98637.45
2017-12-23T09:48:44.770Z,98634.22
2017-12-23T09:51:12.391Z,98631.79
2017-12-23T09:53:39.994Z,98629.82
2017-12-23T09:56:07.664Z,98633.30
2017-12-23T09:58:35.244Z,98632.48
2017-12-23T10:01:02.805Z,98626.23
2017-12-23T10:03:30.374Z,98627.10
2017-12-23T10:05:57.906Z,98611.52
2017-12-23T10:08:25.743Z,98602.94
2017-12-23T10:10:53.334Z,98600.63
2017-12-23T10:13:20.923Z,98612.61
2017-12-23T10:15:48.482Z,98620.81
2017-12-23T10:18:16.081Z,98609.58
2017-12-23T10:20:43.697Z,98607.36
2017-12-23T10:23:11.308Z,98606.19
2017-12-23T10:25:38.929Z,98598.45
2017-12-23T10:28:06.487Z,98608.44
2017-12-23T10:30:34.071Z,98595.30
2017-12-23T10:33:02.609Z,98595.09
2017-12-23T10:35:30.254Z,98594.29
2017-12-23T10:37:57.806Z,98590.30
2017-12-23T10:40:25.373Z,98594.92
2017-12-23T10:42:52.920Z,98582.66
2017-12-23T10:45:20.535Z,98577.23
2017-12-23T10:47:48.111Z,98570.16
2017-12-23T10:50:15.760Z,98567.23
2017-12-23T10:52:43.311Z,98558.53
2017-12-23T10:55:10.910Z,98549.53
2017-12-23T10:57:38.480Z,98545.48
2017-12-23T11:00:06.404Z,98555.27
2017-12-23T11:02:34.186Z,98546.61
2017-12-23T11:05:01.796Z,98541.84
2017-12-23T11:07:29.351Z,98543.43
2017-12-23T11:09:56.910Z,98543.43
2017-12-23T11:12:24.460Z,98532.82
2017-12-23T11:14:52.057Z,98523.09
2017-12-23T11:17:19.671Z,98527.83
2017-12-23T11:19:47.269Z,98530.98
2017-12-23T11:22:14.895Z,98529.33
2017-12-23T11:24:42.534Z,98522.56
2017-12-23T11:27:10.139Z,98530.27
2017-12-23T11:29:37.723Z,98535.02
2017-12-23T11:32:05.328Z,98534.08
2017-12-23T11:34:32.897Z,98524.13
2017-12-23T11:37:00.460Z,98529.39
2017-12-23T11:39:28.110Z,98526.36
2017-12-23T11:41:55.747Z,98527.63
2017-12-23T11:44:23.348Z,98528.61
2017-12-23T11:46:50.925Z,98530.78
2017-12-23T11:49:18.503Z,98530.22
2017-12-23T11:51:46.056Z,98529.87
2017-12-23T11:54:13.660Z,98520.66
2017-12-23T11:56:41.300Z,98516.98
2017-12-23T11:59:09.014Z,98504.34
2017-12-23T12:01:36.594Z,98506.70
2017-12-23T12:04:04.158Z,98505.48
2017-12-23T12:06:31.950Z,98502.97
2017-12-23T12:08:59.516Z,98501.20
2017-12-23T12:11:27.141Z,98502.80
2017-12-23T12:13:54.710Z,98511.91
2017-12-23T12:16:22.313Z,98495.12
2017-12-23T12:18:49.861Z,98486.03
2017-12-23T12:21:17.470Z,98490.28
2017-12-23T12:23:45.050Z,98492.09
2017-12-23T12:26:12.641Z,98494.30
2017-12-23T12:28:40.283Z,98484.84
2017-12-23T12:31:07.901Z,98484.00
2017-12-23T12:33:35.467Z,98485.94
2017-12-23T12:36:03.121Z,98480.88
2017-12-23T12:38:30.682Z,98483.80
2017-12-23T12:40:58.247Z,98477.53
2017-12-23T12:43:25.987Z,98476.33
2017-12-23T12:45:53.572Z,98484.66
2017-12-23T12:48:21.205Z,98480.11
2017-12-23T12:50:48.798Z,98480.98
2017-12-23T12:53:16.375Z,98480.88
2017-12-23T12:55:43.909Z,98484.56
2017-12-23T12:58:11.485Z,98490.48
2017-12-23T13:00:39.027Z,98485.76
2017-12-23T13:03:06.883Z,98486.14
2017-12-23T13:05:34.411Z,98480.15
2017-12-23T13:08:01.977Z,98479.59
2017-12-23T13:10:29.552Z,98478.96
2017-12-23T13:12:57.084Z,98471.63
2017-12-23T13:15:24.640Z,98472.45
2017-12-23T13:17:52.201Z,98468.45
2017-12-23T13:20:19.791Z,98465.80
2017-12-23T13:22:47.364Z,98463.26
2017-12-23T13:25:14.939Z,98465.23
2017-12-23T13:27:42.501Z,98463.93
2017-12-23T13:30:10.054Z,98467.53
2017-12-23T13:32:37.675Z,98453.76
2017-12-23T13:35:05.257Z,98462.09
2017-12-23T13:37:32.832Z,98462.59
2017-12-23T13:40:00.406Z,98462.87
2017-12-23T13:42:27.981Z,98460.72
2017-12-23T13:44:55.522Z,98457.75
2017-12-23T13:47:23.071Z,98458.47
2017-12-23T13:49:50.656Z,98456.38
2017-12-23T13:52:18.243Z,98450.11
2017-12-23T13:54:45.762Z,98451.48
2017-12-23T13:57:13.424Z,98450.98
2017-12-23T13:59:40.977Z,98452.70
2017-12-23T14:02:08.526Z,98443.80
2017-12-23T14:04:36.184Z,98447.03
2017-12-23T14:07:03.747Z,98448.73
2017-12-23T14:09:31.391Z,98438.23
2017-12-23T14:11:58.968Z,98435.33
2017-12-23T14:14:26.632Z,98429.77
2017-12-23T14:16:54.307Z,98430.61
2017-12-23T14:19:21.931Z,98428.15
2017-12-23T14:21:49.507Z,98431.48
2017-12-23T14:24:17.096Z,98424.72
2017-12-23T14:26:44.653Z,98431.42
2017-12-23T14:29:12.248Z,98427.59
2017-12-23T14:31:39.846Z,98425.44
2017-12-23T14:34:07.404Z,98429.67
2017-12-23T14:36:34.967Z,98436.85
2017-12-23T14:39:02.544Z,98441.47
2017-12-23T14:41:30.068Z,98449.39
2017-12-23T14:43:57.688Z,98450.27
2017-12-23T14:46:25.239Z,98450.64
2017-12-23T14:48:52.792Z,98456.95
2017-12-23T14:51:20.361Z,98456.41
2017-12-23T14:53:47.908Z,98459.20
2017-12-23T14:56:15.491Z,98461.61
2017-12-23T14:58:43.072Z,98462.05
2017-12-23T15:01:10.646Z,98461.55
2017-12-23T15:03:38.201Z,98467.98
2017-12-23T15:06:05.773Z,98471.70
2017-12-23T15:08:33.394Z,98473.36
2017-12-23T15:11:01.034Z,98475.27
2017-12-23T15:13:28.588Z,98473.10
2017-12-23T15:15:56.520Z,98465.48
2017-12-23T15:18:24.123Z,98470.90
2017-12-23T15:20:51.703Z,98470.41
2017-12-23T15:23:19.270Z,98469.52
2017-12-23T15:25:46.827Z,98474.08
2017-12-23T15:28:14.412Z,98469.80
2017-12-23T15:30:41.961Z,98469.78
2017-12-23T15:33:09.585Z,98466.45
2017-12-23T15:35:37.141Z,98464.41
2017-12-23T15:38:04.752Z,98463.84
2017-12-23T15:40:32.389Z,98465.17
2017-12-23T15:43:00.008Z,98465.56
2017-12-23T15:45:27.590Z,98465.93
2017-12-23T15:47:55.144Z,98465.43
2017-12-23T15:50:28.610Z,98454.02
2017-12-23T15:52:56.170Z,98459.50
2017-12-23T15:55:23.716Z,98457.87
2017-12-23T15:57:51.274Z,98466.20
2017-12-23T16:00:18.868Z,98451.86
2017-12-23T16:02:46.407Z,98456.92
2017-12-23T16:05:13.967Z,98466.91
2017-12-23T16:07:41.503Z,98454.67
2017-12-23T16:10:09.388Z,98444.38
2017-12-23T16:12:36.950Z,98448.59
2017-12-23T16:15:04.504Z,98457.00
2017-12-23T16:17:32.064Z,98439.33
2017-12-23T16:19:59.687Z,98437.95
2017-12-23T16:22:27.258Z,98442.50
2017-12-23T16:24:54.864Z,98442.00
2017-12-23T16:27:22.495Z,98445.33
2017-12-23T16:29:50.263Z,98441.48
2017-12-23T16:32:18.120Z,98444.66
2017-12-23T16:34:45.698Z,98449.81
2017-12-23T16:37:13.254Z,98449.71
2017-12-23T16:39:40.798Z,98448.38
2017-12-23T16:42:08.378Z,98442.81
2017-12-23T16:44:35.944Z,98446.92
2017-12-23T16:47:03.487Z,98440.45
2017-12-23T16:49:31.082Z,98441.70
2017-12-23T16:51:58.652Z,98451.75
2017-12-23T16:54:26.210Z,98454.20
2017-12-23T16:56:53.747Z,98446.13
2017-12-23T16:59:21.350Z,98453.50
2017-12-23T17:01:48.909Z,98445.61
2017-12-23T17:04:16.490Z,98446.39
2017-12-23T17:06:44.050Z,98441.34
2017-12-23T17:09:11.611Z,98438.36
2017-12-23T17:11:39.172Z,98443.36
2017-12-23T17:14:06.756Z,98444.16
2017-12-23T17:16:34.333Z,98441.53
2017-12-23T17:19:01.899Z,98443.24
2017-12-23T17:21:29.533Z,98445.27
2017-12-23T17:23:57.066Z,98441.34
2017-12-23T17:26:24.728Z,98443.87
2017-12-23T17:29:03.997Z,98447.61
2017-12-23T17:31:31.545Z,98445.44
2017-12-23T17:33:59.086Z,98457.61
2017-12-23T17:36:26.673Z,98447.08
2017-12-23T17:38:54.277Z,98435.23
2017-12-23T17:41:21.825Z,98438.63
2017-12-23T17:43:49.457Z,98447.45
2017-12-23T17:46:16.997Z,98442.81
2017-12-23T17:48:44.567Z,98440.66
2017-12-23T17:51:12.113Z,98436.42
2017-12-23T17:53:41.122Z,98440.59
2017-12-23T17:56:08.902Z,98436.42
2017-12-23T17:58:36.479Z,98444.33
2017-12-23T18:01:04.117Z,98449.30
2017-12-23T18:03:31.688Z,98445.08
2017-12-23T18:05:59.219Z,98450.11
2017-12-23T18:08:26.778Z,98445.41
2017-12-23T18:10:54.359Z,98448.73
2017-12-23T18:13:21.901Z,98439.08
2017-12-23T18:15:49.489Z,98444.13
2017-12-23T18:18:17.038Z,98446.20
2017-12-23T18:20:44.627Z,98452.84
2017-12-23T18:23:12.209Z,98451.14
2017-12-23T18:25:39.742Z,98454.48
2017-12-23T18:28:07.302Z,98453.14
2017-12-23T18:30:35.153Z,98458.20
2017-12-23T18:33:02.745Z,98453.98
2017-12-23T18:35:30.359Z,98451.83
2017-12-23T18:37:59.029Z,98450.11
2017-12-23T18:40:26.846Z,98443.31
2017-12-23T18:42:54.425Z,98442.88
2017-12-23T18:45:22.008Z,98441.60
2017-12-23T18:47:49.597Z,98434.28
2017-12-23T18:50:17.172Z,98449.17
2017-12-23T18:52:44.733Z,98449.54
2017-12-23T18:55:12.301Z,98443.25
2017-12-23T18:57:39.911Z,98445.34
2017-12-23T19:00:07.471Z,98442.23
2017-12-23T19:02:35.118Z,98447.33
2017-12-23T19:05:03.679Z,98435.36
2017-12-23T19:07:31.346Z,98439.27
2017-12-23T19:09:59.026Z,98443.80
2017-12-23T19:12:26.625Z,98435.68
2017-12-23T19:14:54.383Z,98444.45
2017-12-23T19:17:21.965Z,98441.86
2017-12-23T19:19:49.543Z,98442.30
2017-12-23T19:22:17.150Z,98439.27
2017-12-23T19:24:44.748Z,98448.08
2017-12-23T19:27:12.340Z,98448.03
2017-12-23T19:29:40.047Z,98447.16
2017-12-23T19:32:07.616Z,98447.53
2017-12-23T19:34:35.191Z,98438.77
2017-12-23T19:37:02.801Z,98449.22
2017-12-23T19:39:30.419Z,98452.19
2017-12-23T19:41:58.034Z,98450.44
2017-12-23T19:44:25.632Z,98443.61
2017-12-23T19:46:53.218Z,98449.59
2017-12-23T19:49:20.791Z,98452.02
2017-12-23T19:51:48.423Z,98457.06
2017-12-23T19:54:16.072Z,98451.17
2017-12-23T19:56:43.840Z,98453.19
2017-12-23T19:59:11.486Z,98452.75
2017-12-23T20:01:39.057Z,98450.23
2017-12-23T20:04:06.644Z,98450.56
2017-12-23T20:06:34.258Z,98448.84
2017-12-23T20:09:01.888Z,98447.20
2017-12-23T20:11:29.745Z,98452.58
2017-12-23T20:13:57.376Z,98448.80
2017-12-23T20:16:25.038Z,98450.36
2017-12-23T20:18:52.692Z,98450.42
2017-12-23T20:21:20.350Z,98448.29
2017-12-23T20:23:48.026Z,98449.22
2017-12-23T20:26:15.679Z,98447.47
2017-12-23T20:28:43.297Z,98452.81
2017-12-23T20:31:11.949Z,98451.56
2017-12-23T20:33:39.491Z,98470.53
2017-12-23T20:36:07.087Z,98462.89
2017-12-23T20:38:34.731Z,98458.23
2017-12-23T20:41:02.390Z,98449.64
2017-12-23T20:43:29.984Z,98461.81
2017-12-23T20:45:57.680Z,98462.08
2017-12-23T20:48:25.316Z,98462.44
2017-12-23T20:50:52.942Z,98463.65
2017-12-23T20:53:20.508Z,98457.52
2017-12-23T20:55:48.138Z,98453.49
2017-12-23T20:58:15.712Z,98447.44
2017-12-23T21:00:43.324Z,98448.33
2017-12-23T21:03:11.005Z,98446.98
2017-12-23T21:05:38.643Z,98446.42
2017-12-23T21:08:06.219Z,98462.37
2017-12-23T21:10:33.911Z,98455.92
2017-12-23T21:13:01.607Z,98452.22
2017-12-23T21:15:29.154Z,98457.98
2017-12-23T21:17:56.948Z,98453.77
2017-12-23T21:20:24.616Z,98457.94
2017-12-23T21:22:52.236Z,98452.07
2017-12-23T21:25:19.809Z,98459.20
2017-12-23T21:27:47.768Z,98457.05
2017-12-23T21:30:15.334Z,98461.26
2017-12-23T21:32:42.960Z,98461.66
2017-12-23T21:35:10.716Z,98450.05
2017-12-23T21:37:38.298Z,98455.68
2017-12-23T21:40:05.864Z,98454.03
2017-12-23T21:42:34.343Z,98453.20
2017-12-23T21:45:01.979Z,98456.17
2017-12-23T21:47:29.548Z,98457.48
2017-12-23T21:49:57.174Z,98457.43
2017-12-23T21:52:24.782Z,98452.83
2017-12-23T21:54:52.360Z,98454.86
2017-12-23T21:57:19.983Z,98461.59
2017-12-23T21:59:47.548Z,98458.20
2017-12-23T22:02:15.148Z,98460.38
2017-12-23T22:04:42.706Z,98462.10
2017-12-23T22:07:10.282Z,98452.44
2017-12-23T22:09:37.845Z,98459.51
2017-12-23T22:12:05.426Z,98460.41
2017-12-23T22:14:33.000Z,98455.68
2017-12-23T22:17:00.613Z,98459.58
2017-12-23T22:19:28.166Z,98455.34
2017-12-23T22:21:56.096Z,98448.30
2017-12-23T22:24:23.633Z,98448.36
2017-12-23T22:26:51.247Z,98453.84
2017-12-23T22:29:18.858Z,98450.08
2017-12-23T22:31:46.407Z,98453.04
2017-12-23T22:34:13.996Z,98453.09
2017-12-23T22:36:41.542Z,98451.46
2017-12-23T22:39:09.110Z,98446.49
2017-12-23T22:41:36.669Z,98443.27
2017-12-23T22:44:05.195Z,98438.80
2017-12-23T22:46:32.792Z,98438.69
2017-12-23T22:49:00.607Z,98436.73
2017-12-23T22:51:28.114Z,98435.84
2017-12-23T22:53:55.633Z,98430.03
2017-12-23T22:56:23.334Z,98430.73
2017-12-23T22:58:50.887Z,98429.59
2017-12-23T23:01:18.448Z,98432.55
2017-12-23T23:03:46.012Z,98435.73
2017-12-23T23:06:13.599Z,98429.35
2017-12-23T23:08:41.189Z,98426.06
2017-12-23T23:11:08.760Z,98423.48
2017-12-23T23:13:36.359Z,98421.02
2017-12-23T23:16:03.960Z,98420.97
2017-12-23T23:18:31.692Z,98425.12
2017-12-23T23:20:59.308Z,98419.52
2017-12-23T23:23:26.921Z,98420.44
2017-12-23T23:25:54.644Z,98412.83
2017-12-23T23:28:22.239Z,98413.22
2017-12-23T23:30:49.800Z,98417.43
2017-12-23T23:33:17.398Z,98409.34
2017-12-23T23:35:44.986Z,98406.39
2017-12-23T23:38:12.606Z,98407.23
2017-12-23T23:40:40.164Z,98408.47
2017-12-23T23:43:07.769Z,98403.36
2017-12-23T23:45:35.368Z,98409.61
2017-12-23T23:48:02.971Z,98409.55
2017-12-23T23:50:30.534Z,98413.32
2017-12-23T23:52:58.058Z,98406.08
2017-12-23T23:55:25.718Z,98406.00
2017-12-23T23:57:53.244Z,98397.50
